createdAt,value
2019-06-01T00:00:46.342Z,5.50
2019-06-01T00:03:48.600Z,5.90
2019-06-01T00:06:19.254Z,5.47
2019-06-01T00:08:53.119Z,6.30
2019-06-01T00:11:24.592Z,5.57
2019-06-01T00:13:57.649Z,5.43
2019-06-01T00:16:29.132Z,5.17
2019-06-01T00:19:01.035Z,5.50
2019-06-01T00:21:33.333Z,5.20
2019-06-01T00:24:04.728Z,4.63
2019-06-01T00:26:36.382Z,4.77
2019-06-01T00:29:07.830Z,4.73
2019-06-01T00:31:41.137Z,5.20
2019-06-01T00:34:12.794Z,5.47
2019-06-01T00:36:45.552Z,5.03
2019-06-01T00:39:17.540Z,5.00
2019-06-01T00:41:50.150Z,5.20
2019-06-01T00:44:22.597Z,5.57
2019-06-01T00:46:54.248Z,5.83
2019-06-01T00:49:25.708Z,5.77
2019-06-01T00:51:57.163Z,5.70
2019-06-01T00:54:29.663Z,5.97
2019-06-01T00:57:00.999Z,5.80
2019-06-01T00:59:33.070Z,5.83
2019-06-01T01:02:04.507Z,5.70
2019-06-01T01:04:36.020Z,5.33
2019-06-01T01:07:09.088Z,6.07
2019-06-01T01:09:40.295Z,6.17
2019-06-01T01:12:11.688Z,6.13
2019-06-01T01:14:43.102Z,6.10
2019-06-01T01:17:14.464Z,6.60
2019-06-01T01:19:46.252Z,6.60
2019-06-01T01:22:17.816Z,6.30
2019-06-01T01:24:50.417Z,6.63
2019-06-01T01:27:22.165Z,5.50
2019-06-01T01:29:54.975Z,5.50
2019-06-01T01:32:26.314Z,6.00
2019-06-01T01:34:57.848Z,5.77
2019-06-01T01:37:29.409Z,5.80
2019-06-01T01:40:00.703Z,6.23
2019-06-01T01:42:32.499Z,6.30
2019-06-01T01:45:04.531Z,6.50
2019-06-01T01:47:35.801Z,7.20
2019-06-01T01:50:08.731Z,7.10
2019-06-01T01:52:40.161Z,6.83
2019-06-01T01:55:12.816Z,6.60
2019-06-01T01:57:44.243Z,7.00
2019-06-01T02:00:15.800Z,8.10
2019-06-01T02:02:47.199Z,7.40
2019-06-01T02:05:18.732Z,8.03
2019-06-01T02:07:50.963Z,9.23
2019-06-01T02:10:22.445Z,10.27
2019-06-01T02:12:55.368Z,9.60
2019-06-01T02:15:29.961Z,9.53
2019-06-01T02:18:02.795Z,9.60
2019-06-01T02:20:34.717Z,10.20
2019-06-01T02:23:06.697Z,10.40
2019-06-01T02:25:39.640Z,11.33
2019-06-01T02:28:11.009Z,11.07
2019-06-01T02:30:42.374Z,10.50
2019-06-01T02:33:15.481Z,9.67
2019-06-01T02:35:47.197Z,9.37
2019-06-01T02:38:18.972Z,10.10
2019-06-01T02:40:50.397Z,9.73
2019-06-01T02:43:24.189Z,9.63
2019-06-01T02:45:56.421Z,10.00
2019-06-01T02:48:29.682Z,10.63
2019-06-01T02:51:01.880Z,10.77
2019-06-01T02:53:33.429Z,11.30
2019-06-01T02:56:06.094Z,10.90
2019-06-01T02:58:37.725Z,10.43
2019-06-01T03:01:33.727Z,11.00
2019-06-01T03:04:10.609Z,10.73
2019-06-01T03:06:45.781Z,10.30
2019-06-01T03:09:18.468Z,10.53
2019-06-01T03:11:53.771Z,10.50
2019-06-01T03:14:28.262Z,10.80
2019-06-01T03:17:02.054Z,10.57
2019-06-01T03:19:36.694Z,11.17
2019-06-01T03:22:13.005Z,10.40
2019-06-01T03:24:49.592Z,9.83
2019-06-01T03:27:23.202Z,10.03
2019-06-01T03:29:57.158Z,9.40
2019-06-01T03:32:35.921Z,9.10
2019-06-01T03:35:02.819Z,8.30
2019-06-01T03:37:35.534Z,8.20
2019-06-01T03:40:15.858Z,7.95
2019-06-01T03:42:41.230Z,7.42
2019-06-01T03:45:13.242Z,7.28
2019-06-01T03:47:45.385Z,7.90
2019-06-01T03:50:16.951Z,7.75
2019-06-01T03:52:50.317Z,7.70
2019-06-01T03:55:22.159Z,7.75
2019-06-01T03:57:53.918Z,8.20
2019-06-01T04:00:25.448Z,8.10
2019-06-01T04:02:57.844Z,8.55
2019-06-01T04:05:29.390Z,7.47
2019-06-01T04:08:03.065Z,7.67
2019-06-01T04:10:34.982Z,7.25
2019-06-01T04:13:06.247Z,7.17
2019-06-01T04:15:39.877Z,7.05
2019-06-01T04:18:13.977Z,6.53
2019-06-01T04:20:44.431Z,6.58
2019-06-01T04:23:15.727Z,6.10
2019-06-01T04:25:47.341Z,6.00
2019-06-01T04:28:19.017Z,5.53
2019-06-01T04:30:50.589Z,5.72
2019-06-01T04:33:22.254Z,5.58
2019-06-01T04:35:54.276Z,5.97
2019-06-01T04:38:25.528Z,5.58
2019-06-01T04:40:57.016Z,5.35
2019-06-01T04:43:29.130Z,4.83
2019-06-01T04:46:02.268Z,5.15
2019-06-01T04:48:33.672Z,4.83
2019-06-01T04:51:06.590Z,4.87
2019-06-01T04:53:37.993Z,5.70
2019-06-01T04:56:09.271Z,4.87
2019-06-01T04:58:40.735Z,5.40
2019-06-01T05:01:13.011Z,4.72
2019-06-01T05:03:45.034Z,4.78
2019-06-01T05:06:16.540Z,4.05
2019-06-01T05:08:48.749Z,4.50
2019-06-01T05:11:20.329Z,4.58
2019-06-01T05:13:51.783Z,4.90
2019-06-01T05:16:23.554Z,4.20
2019-06-01T05:18:55.530Z,4.03
2019-06-01T05:21:26.842Z,4.22
2019-06-01T05:23:58.208Z,4.08
2019-06-01T05:26:29.597Z,4.40
2019-06-01T05:29:01.145Z,3.98
2019-06-01T05:31:32.437Z,4.40
2019-06-01T05:34:04.830Z,4.35
2019-06-01T05:36:36.289Z,4.45
2019-06-01T05:39:08.591Z,4.33
2019-06-01T05:41:39.944Z,4.35
2019-06-01T05:44:11.378Z,4.05
2019-06-01T05:46:42.728Z,3.98
2019-06-01T05:49:16.434Z,4.30
2019-06-01T05:51:47.680Z,4.53
2019-06-01T05:54:19.351Z,4.20
2019-06-01T05:56:51.827Z,4.05
2019-06-01T05:59:23.877Z,3.70
2019-06-01T06:01:56.358Z,3.95
2019-06-01T06:04:27.642Z,3.70
2019-06-01T06:06:59.014Z,3.30
2019-06-01T06:09:30.328Z,3.35
2019-06-01T06:12:01.677Z,2.90
2019-06-01T06:14:33.081Z,2.83
2019-06-01T06:17:04.526Z,2.90
2019-06-01T06:19:36.354Z,2.90
2019-06-01T06:22:09.048Z,2.37
2019-06-01T06:24:40.366Z,2.62
2019-06-01T06:27:12.443Z,2.92
2019-06-01T06:29:45.079Z,2.40
2019-06-01T06:32:17.265Z,2.40
2019-06-01T06:34:48.926Z,2.10
2019-06-01T06:37:21.759Z,2.20
2019-06-01T06:39:53.356Z,2.50
2019-06-01T06:42:24.723Z,2.20
2019-06-01T06:44:56.524Z,1.95
2019-06-01T06:47:27.852Z,2.10
2019-06-01T06:49:59.218Z,2.42
2019-06-01T06:52:32.349Z,2.22
2019-06-01T06:55:03.902Z,2.10
2019-06-01T06:57:36.819Z,2.27
2019-06-01T07:00:08.340Z,2.20
2019-06-01T07:02:39.743Z,2.60
2019-06-01T07:05:12.196Z,2.72
2019-06-01T07:07:43.517Z,2.30
2019-06-01T07:10:15.990Z,2.30
2019-06-01T07:12:48.980Z,2.70
2019-06-01T07:15:21.405Z,2.67
2019-06-01T07:17:53.429Z,2.87
2019-06-01T07:20:26.194Z,2.40
2019-06-01T07:22:57.520Z,2.92
2019-06-01T07:25:28.924Z,2.60
2019-06-01T07:28:00.232Z,5.08
2019-06-01T07:30:32.541Z,2.80
2019-06-01T07:33:04.723Z,2.83
2019-06-01T07:35:36.247Z,2.80
2019-06-01T07:38:07.901Z,2.83
2019-06-01T07:40:39.269Z,2.90
2019-06-01T07:43:10.612Z,2.75
2019-06-01T07:45:43.327Z,5.47
2019-06-01T07:48:14.848Z,6.40
2019-06-01T07:50:46.699Z,8.48
2019-06-01T07:53:21.564Z,9.90
2019-06-01T07:55:53.309Z,10.10
2019-06-01T07:58:24.803Z,10.88
2019-06-01T08:00:59.609Z,8.58
2019-06-01T08:03:34.695Z,8.50
2019-06-01T08:06:05.538Z,8.55
2019-06-01T08:08:36.983Z,8.60
2019-06-01T08:11:08.216Z,8.43
2019-06-01T08:13:41.331Z,8.15
2019-06-01T08:16:12.868Z,9.65
2019-06-01T08:18:44.626Z,8.30
2019-06-01T08:21:17.110Z,6.78
2019-06-01T08:23:48.441Z,7.33
2019-06-01T08:26:20.154Z,8.80
2019-06-01T08:28:52.387Z,7.92
2019-06-01T08:31:24.526Z,7.35
2019-06-01T08:33:56.477Z,6.97
2019-06-01T08:36:27.876Z,7.08
2019-06-01T08:39:00.581Z,6.70
2019-06-01T08:41:33.693Z,7.53
2019-06-01T08:44:05.735Z,6.92
2019-06-01T08:46:37.345Z,6.50
2019-06-01T08:49:08.812Z,6.50
2019-06-01T08:51:41.808Z,6.90
2019-06-01T08:54:13.069Z,7.20
2019-06-01T08:56:44.325Z,6.20
2019-06-01T08:59:15.555Z,7.17
2019-06-01T09:01:46.928Z,6.62
2019-06-01T09:04:18.379Z,6.12
2019-06-01T09:06:49.579Z,6.45
2019-06-01T09:09:20.998Z,5.70
2019-06-01T09:11:52.582Z,6.33
2019-06-01T09:14:25.103Z,5.72
2019-06-01T09:16:56.629Z,5.50
2019-06-01T09:19:29.340Z,5.33
2019-06-01T09:22:02.374Z,5.72
2019-06-01T09:24:36.204Z,4.97
2019-06-01T09:27:07.704Z,5.28
2019-06-01T09:29:38.961Z,6.05
2019-06-01T09:32:11.412Z,5.80
2019-06-01T09:34:42.952Z,5.95
2019-06-01T09:37:14.383Z,7.45
2019-06-01T09:39:45.952Z,7.58
2019-06-01T09:42:17.915Z,6.47
2019-06-01T09:44:49.294Z,6.28
2019-06-01T09:47:22.416Z,5.97
2019-06-01T09:49:54.258Z,6.28
2019-06-01T09:52:25.508Z,6.70
2019-06-01T09:54:56.836Z,5.78
2019-06-01T09:57:28.275Z,5.92
2019-06-01T09:59:59.546Z,6.17
2019-06-01T10:02:32.092Z,9.25
2019-06-01T10:05:05.948Z,15.58
2019-06-01T10:07:37.303Z,6.60
2019-06-01T10:10:09.007Z,6.22
2019-06-01T10:12:40.343Z,5.90
2019-06-01T10:15:11.957Z,5.80
2019-06-01T10:17:43.277Z,5.60
2019-06-01T10:20:14.667Z,5.37
2019-06-01T10:22:46.526Z,5.90
2019-06-01T10:25:17.901Z,5.90
2019-06-01T10:27:49.132Z,5.65
2019-06-01T10:30:21.596Z,5.58
2019-06-01T10:32:53.387Z,5.53
2019-06-01T10:35:24.722Z,5.75
2019-06-01T10:37:56.509Z,5.78
2019-06-01T10:40:27.845Z,5.60
2019-06-01T10:43:00.160Z,5.80
2019-06-01T10:45:31.822Z,5.35
2019-06-01T10:48:03.229Z,5.40
2019-06-01T10:50:35.241Z,5.58
2019-06-01T10:53:09.111Z,5.67
2019-06-01T10:55:40.833Z,5.40
2019-06-01T10:58:12.877Z,5.80
2019-06-01T11:00:50.636Z,5.42
2019-06-01T11:03:17.281Z,5.62
2019-06-01T11:05:51.689Z,6.08
2019-06-01T11:08:23.252Z,5.80
2019-06-01T11:10:57.532Z,6.12
2019-06-01T11:13:28.824Z,5.78
2019-06-01T11:16:00.197Z,5.97
2019-06-01T11:18:31.546Z,6.10
2019-06-01T11:21:02.900Z,6.75
2019-06-01T11:23:35.554Z,6.25
2019-06-01T11:26:06.943Z,6.35
2019-06-01T11:28:40.050Z,6.25
2019-06-01T11:31:12.250Z,6.37
2019-06-01T11:33:44.313Z,5.90
2019-06-01T11:36:16.030Z,6.00
2019-06-01T11:38:47.390Z,5.90
2019-06-01T11:41:19.119Z,6.65
2019-06-01T11:43:54.491Z,6.67
2019-06-01T11:46:26.599Z,7.17
2019-06-01T11:48:57.967Z,6.35
2019-06-01T11:51:29.382Z,6.40
2019-06-01T11:54:01.297Z,6.78
2019-06-01T11:56:32.675Z,6.78
2019-06-01T11:59:04.099Z,7.00
2019-06-01T12:01:35.644Z,6.62
2019-06-01T12:04:08.469Z,7.47
2019-06-01T12:06:39.862Z,6.45
2019-06-01T12:09:11.272Z,6.03
2019-06-01T12:11:42.603Z,6.92
2019-06-01T12:14:14.440Z,6.67
2019-06-01T12:16:46.768Z,6.87
2019-06-01T12:19:18.689Z,6.83
2019-06-01T12:21:50.268Z,6.67
2019-06-01T12:24:25.702Z,6.78
2019-06-01T12:26:55.491Z,7.62
2019-06-01T12:29:26.773Z,8.20
2019-06-01T12:31:58.186Z,7.70
2019-06-01T12:34:29.539Z,8.05
2019-06-01T12:37:00.954Z,7.30
2019-06-01T12:39:35.480Z,7.45
2019-06-01T12:42:06.769Z,8.05
2019-06-01T12:44:39.730Z,7.58
2019-06-01T12:47:11.385Z,8.40
2019-06-01T12:49:44.045Z,7.20
2019-06-01T12:52:15.313Z,8.43
2019-06-01T12:54:46.807Z,8.25
2019-06-01T12:57:19.376Z,7.97
2019-06-01T12:59:51.202Z,7.42
2019-06-01T13:02:23.471Z,7.45
2019-06-01T13:04:55.235Z,7.03
2019-06-01T13:07:26.569Z,6.42
2019-06-01T13:09:57.978Z,6.58
2019-06-01T13:12:29.354Z,7.75
2019-06-01T13:15:00.757Z,7.42
2019-06-01T13:17:32.090Z,7.90
2019-06-01T13:20:03.533Z,7.50
2019-06-01T13:22:35.349Z,6.92
2019-06-01T13:25:08.296Z,5.90
2019-06-01T13:27:40.929Z,5.50
2019-06-01T13:30:12.900Z,4.58
2019-06-01T13:32:44.494Z,4.67
2019-06-01T13:35:16.111Z,5.17
2019-06-01T13:37:48.872Z,5.08
2019-06-01T13:40:20.276Z,4.87
2019-06-01T13:42:51.697Z,4.90
2019-06-01T13:45:23.651Z,4.58
2019-06-01T13:47:55.510Z,4.80
2019-06-01T13:50:26.852Z,4.30
2019-06-01T13:52:58.207Z,5.10
2019-06-01T13:55:29.692Z,4.97
2019-06-01T13:58:01.080Z,4.60
2019-06-01T14:00:32.462Z,5.22
2019-06-01T14:03:03.932Z,5.65
2019-06-01T14:05:35.363Z,5.25
2019-06-01T14:08:06.760Z,5.42
2019-06-01T14:10:39.209Z,5.47
2019-06-01T14:13:11.010Z,5.45
2019-06-01T14:15:45.825Z,5.53
2019-06-01T14:18:17.289Z,5.53
2019-06-01T14:20:51.752Z,5.90
2019-06-01T14:23:23.623Z,5.67
2019-06-01T14:25:56.366Z,5.65
2019-06-01T14:28:27.807Z,6.35
2019-06-01T14:30:59.101Z,6.47
2019-06-01T14:33:32.155Z,7.50
2019-06-01T14:36:03.478Z,6.55
2019-06-01T14:38:46.498Z,6.67
2019-06-01T14:41:08.476Z,5.40
2019-06-01T14:43:40.428Z,6.00
2019-06-01T14:46:11.706Z,6.03
2019-06-01T14:48:43.052Z,5.92
2019-06-01T14:51:14.427Z,6.17
2019-06-01T14:53:45.897Z,6.17
2019-06-01T14:56:17.537Z,6.28
2019-06-01T14:58:49.907Z,6.17
2019-06-01T15:01:31.880Z,8.20
2019-06-01T15:03:54.626Z,8.63
2019-06-01T15:06:25.939Z,12.28
2019-06-01T15:09:15.816Z,14.15
2019-06-01T15:11:36.582Z,16.67
2019-06-01T15:14:08.050Z,19.12
2019-06-01T15:16:39.931Z,18.45
2019-06-01T15:19:11.313Z,22.05
2019-06-01T15:21:43.156Z,18.27
2019-06-01T15:24:14.478Z,17.05
2019-06-01T15:26:48.597Z,21.07
2019-06-01T15:29:20.110Z,17.02
2019-06-01T15:31:51.447Z,18.98
2019-06-01T15:34:23.223Z,20.75
2019-06-01T15:36:55.568Z,18.90
2019-06-01T15:39:27.399Z,17.98
2019-06-01T15:41:59.143Z,17.23
2019-06-01T15:44:31.434Z,14.90
2019-06-01T15:47:02.764Z,15.05
2019-06-01T15:49:34.291Z,13.75
2019-06-01T15:52:06.821Z,13.60
2019-06-01T15:54:38.554Z,13.30
2019-06-01T15:57:12.918Z,14.45
2019-06-01T15:59:44.366Z,14.10
2019-06-01T16:02:15.758Z,12.85
2019-06-01T16:04:47.326Z,12.68
2019-06-01T16:07:18.997Z,13.68
2019-06-01T16:09:50.354Z,13.22
2019-06-01T16:12:25.106Z,12.65
2019-06-01T16:14:57.576Z,12.55
2019-06-01T16:17:28.967Z,12.35
2019-06-01T16:20:00.398Z,12.13
2019-06-01T16:22:31.883Z,12.47
2019-06-01T16:25:05.165Z,11.12
2019-06-01T16:27:36.463Z,10.32
2019-06-01T16:30:08.105Z,9.40
2019-06-01T16:32:39.946Z,10.15
2019-06-01T16:35:14.293Z,9.55
2019-06-01T16:37:45.616Z,8.63
2019-06-01T16:40:19.134Z,8.83
2019-06-01T16:42:50.903Z,8.88
2019-06-01T16:45:22.712Z,9.03
2019-06-01T16:47:55.478Z,9.70
2019-06-01T16:50:26.832Z,9.65
2019-06-01T16:52:58.332Z,9.55
2019-06-01T16:55:31.586Z,9.38
2019-06-01T16:58:03.679Z,9.28
2019-06-01T17:00:35.219Z,9.18
2019-06-01T17:03:10.994Z,8.25
2019-06-01T17:05:39.807Z,7.92
2019-06-01T17:08:13.064Z,8.50
2019-06-01T17:10:45.204Z,7.90
2019-06-01T17:13:16.815Z,8.63
2019-06-01T17:15:49.286Z,7.30
2019-06-01T17:18:20.717Z,7.78
2019-06-01T17:20:53.130Z,7.67
2019-06-01T17:23:27.804Z,7.00
2019-06-01T17:25:59.778Z,7.87
2019-06-01T17:28:31.280Z,7.87
2019-06-01T17:31:02.779Z,7.78
2019-06-01T17:33:34.239Z,8.00
2019-06-01T17:36:06.742Z,7.80
2019-06-01T17:38:38.188Z,7.45
2019-06-01T17:41:12.649Z,7.65
2019-06-01T17:43:44.473Z,7.47
2019-06-01T17:46:17.180Z,7.25
2019-06-01T17:48:48.895Z,7.28
2019-06-01T17:51:22.369Z,7.95
2019-06-01T17:53:54.193Z,7.67
2019-06-01T17:56:25.654Z,7.72
2019-06-01T17:58:57.395Z,8.33
2019-06-01T18:01:28.814Z,7.75
2019-06-01T18:04:01.583Z,8.80
2019-06-01T18:06:34.258Z,8.78
2019-06-01T18:09:08.171Z,8.90
2019-06-01T18:11:40.710Z,8.53
2019-06-01T18:14:12.428Z,8.08
2019-06-01T18:16:44.272Z,9.25
2019-06-01T18:19:18.387Z,8.98
2019-06-01T18:21:49.739Z,10.45
2019-06-01T18:24:21.325Z,9.30
2019-06-01T18:26:53.320Z,9.88
2019-06-01T18:29:24.641Z,9.83
2019-06-01T18:31:57.548Z,9.75
2019-06-01T18:34:29.665Z,9.83
2019-06-01T18:37:01.015Z,10.03
2019-06-01T18:39:32.488Z,10.55
2019-06-01T18:42:04.074Z,10.78
2019-06-01T18:44:35.388Z,10.58
2019-06-01T18:47:07.814Z,10.43
2019-06-01T18:49:39.830Z,10.10
2019-06-01T18:52:11.204Z,10.50
2019-06-01T18:54:42.719Z,10.98
2019-06-01T18:57:19.343Z,10.32
2019-06-01T18:59:48.915Z,10.48
2019-06-01T19:02:20.352Z,10.55
2019-06-01T19:04:51.772Z,10.60
2019-06-01T19:07:23.424Z,10.85
2019-06-01T19:09:55.415Z,11.05
2019-06-01T19:12:26.783Z,10.90
2019-06-01T19:15:01.428Z,10.90
2019-06-01T19:17:35.204Z,11.63
2019-06-01T19:20:08.525Z,11.35
2019-06-01T19:22:40.299Z,11.83
2019-06-01T19:25:16.969Z,13.30
2019-06-01T19:27:56.610Z,16.30
2019-06-01T19:30:35.915Z,15.53
2019-06-01T19:33:15.318Z,15.20
2019-06-01T19:35:46.921Z,14.45
2019-06-01T19:38:21.178Z,14.58
2019-06-01T19:40:53.324Z,13.62
2019-06-01T19:43:26.290Z,13.55
2019-06-01T19:45:57.914Z,13.83
2019-06-01T19:48:29.767Z,15.10
2019-06-01T19:51:01.406Z,23.27
2019-06-01T19:53:33.586Z,23.07
2019-06-01T19:56:05.067Z,20.52
2019-06-01T19:58:36.518Z,18.37
2019-06-01T20:01:08.321Z,16.90
2019-06-01T20:03:42.109Z,17.75
2019-06-01T20:06:15.290Z,15.98
2019-06-01T20:08:46.831Z,16.82
2019-06-01T20:11:19.359Z,16.25
2019-06-01T20:13:50.876Z,15.85
2019-06-01T20:16:22.917Z,15.40
2019-06-01T20:18:58.051Z,16.80
2019-06-01T20:21:29.294Z,16.00
2019-06-01T20:24:00.734Z,16.62
2019-06-01T20:26:42.011Z,16.65
2019-06-01T20:29:08.166Z,15.30
2019-06-01T20:31:42.025Z,16.27
2019-06-01T20:34:14.297Z,17.25
2019-06-01T20:36:47.992Z,16.87
2019-06-01T20:39:23.787Z,17.52
2019-06-01T20:41:58.726Z,16.25
2019-06-01T20:44:30.853Z,16.10
2019-06-01T20:47:02.196Z,16.60
2019-06-01T20:49:34.778Z,17.25
2019-06-01T20:52:07.390Z,16.82
2019-06-01T20:54:38.828Z,18.30
2019-06-01T20:57:10.468Z,19.67
2019-06-01T20:59:41.792Z,19.42
2019-06-01T21:02:15.750Z,20.52
2019-06-01T21:04:49.473Z,19.37
2019-06-01T21:07:24.182Z,20.20
2019-06-01T21:09:57.836Z,19.98
2019-06-01T21:12:44.010Z,20.80
2019-06-01T21:15:02.354Z,18.95
2019-06-01T21:17:37.181Z,21.07
2019-06-01T21:20:10.111Z,22.37
2019-06-01T21:22:42.563Z,20.08
2019-06-01T21:25:14.729Z,21.17
2019-06-01T21:27:47.599Z,21.77
2019-06-01T21:30:22.264Z,21.42
2019-06-01T21:32:56.183Z,20.62
2019-06-01T21:35:29.837Z,21.13
2019-06-01T21:38:01.184Z,20.30
2019-06-01T21:40:33.404Z,21.33
2019-06-01T21:43:23.056Z,21.77
2019-06-01T21:45:38.873Z,21.00
2019-06-01T21:48:10.201Z,20.73
2019-06-01T21:50:41.614Z,22.10
2019-06-01T21:53:15.988Z,22.30
2019-06-01T21:55:48.045Z,22.00
2019-06-01T21:58:21.069Z,21.33
2019-06-01T22:00:53.392Z,21.77
2019-06-01T22:03:28.153Z,22.60
2019-06-01T22:06:00.629Z,22.07
2019-06-01T22:08:32.810Z,22.80
2019-06-01T22:11:05.311Z,22.07
2019-06-01T22:13:37.542Z,24.20
2019-06-01T22:16:09.860Z,22.97
2019-06-01T22:18:41.336Z,23.73
2019-06-01T22:21:13.185Z,23.37
2019-06-01T22:23:44.591Z,23.33
2019-06-01T22:26:16.199Z,23.27
2019-06-01T22:28:47.542Z,23.27
2019-06-01T22:31:20.091Z,22.90
2019-06-01T22:33:52.925Z,22.60
2019-06-01T22:36:27.157Z,21.07
2019-06-01T22:38:59.201Z,22.50
2019-06-01T22:41:31.018Z,23.05
2019-06-01T22:44:02.862Z,23.93
2019-06-01T22:46:40.697Z,24.10
2019-06-01T22:49:12.000Z,25.27
2019-06-01T22:51:44.991Z,25.23
2019-06-01T22:54:17.516Z,24.47
2019-06-01T22:56:50.530Z,24.73
2019-06-01T22:59:22.499Z,26.50
2019-06-01T23:01:54.535Z,26.20
2019-06-01T23:04:27.166Z,25.33
2019-06-01T23:06:59.184Z,26.53
2019-06-01T23:09:31.658Z,27.13
2019-06-01T23:12:03.365Z,26.30
2019-06-01T23:14:34.828Z,26.90
2019-06-01T23:17:08.747Z,25.67
2019-06-01T23:19:40.942Z,27.10
2019-06-01T23:22:14.001Z,25.87
2019-06-01T23:24:47.026Z,27.07
2019-06-01T23:27:19.622Z,26.97
2019-06-01T23:29:50.958Z,26.40
2019-06-01T23:32:24.506Z,27.20
2019-06-01T23:34:56.656Z,25.73
2019-06-01T23:37:30.782Z,27.22
2019-06-01T23:40:02.352Z,26.83
2019-06-01T23:42:36.249Z,26.80
2019-06-01T23:45:08.679Z,26.40
2019-06-01T23:47:40.053Z,26.60
2019-06-01T23:50:11.845Z,27.53
2019-06-01T23:52:45.347Z,27.70
2019-06-01T23:55:18.411Z,27.80
2019-06-01T23:57:49.748Z,29.03
